sensor_id;sensor_type;location;lat;lon;timestamp;P1;durP1;ratioP1;P2;durP2;ratioP2
72711;SDS011;60828;40.292;17.998;2022-12-07T10:55:58;14.90;;;6.80;;
72711;SDS011;60828;40.292;17.998;2022-12-07T10:58:37;16.95;;;5.53;;
72711;SDS011;60828;40.292;17.998;2022-12-07T11:07:06;17.95;;;6.20;;
72711;SDS011;60828;40.292;17.998;2022-12-07T11:37:48;15.70;;;5.77;;
72711;SDS011;60828;40.292;17.998;2022-12-07T11:40:20;20.37;;;6.20;;
72711;SDS011;60828;40.292;17.998;2022-12-07T11:46:02;20.77;;;5.40;;
72711;SDS011;60828;40.292;17.998;2022-12-07T11:48:38;21.95;;;6.50;;
72711;SDS011;60828;40.292;17.998;2022-12-07T11:51:10;19.50;;;7.80;;
72711;SDS011;60828;40.292;17.998;2022-12-07T11:56:27;30.25;;;12.68;;
72711;SDS011;60828;40.292;17.998;2022-12-07T11:58:57;22.42;;;7.20;;
72711;SDS011;60828;40.292;17.998;2022-12-07T12:06:42;18.73;;;5.95;;
72711;SDS011;60828;40.292;17.998;2022-12-07T12:09:16;17.13;;;6.70;;
72711;SDS011;60828;40.292;17.998;2022-12-07T12:11:56;21.42;;;7.10;;
72711;SDS011;60828;40.292;17.998;2022-12-07T12:22:57;19.73;;;7.50;;
72711;SDS011;60828;40.292;17.998;2022-12-07T12:25:29;18.08;;;7.32;;
72711;SDS011;60828;40.292;17.998;2022-12-07T12:28:01;22.85;;;7.53;;
72711;SDS011;60828;40.292;17.998;2022-12-07T12:33:03;20.50;;;5.32;;
72711;SDS011;60828;40.292;17.998;2022-12-07T12:35:36;20.92;;;6.78;;
72711;SDS011;60828;40.292;17.998;2022-12-07T12:40:58;16.90;;;5.80;;
72711;SDS011;60828;40.292;17.998;2022-12-07T12:51:46;23.50;;;7.07;;
72711;SDS011;60828;40.292;17.998;2022-12-07T12:54:25;20.48;;;5.43;;
72711;SDS011;60828;40.292;17.998;2022-12-07T12:59:58;21.73;;;6.00;;
72711;SDS011;60828;40.292;17.998;2022-12-07T13:02:36;25.33;;;7.18;;
72711;SDS011;60828;40.292;17.998;2022-12-07T13:23:33;19.10;;;7.80;;
72711;SDS011;60828;40.292;17.998;2022-12-07T13:28:46;23.20;;;8.33;;
72711;SDS011;60828;40.292;17.998;2022-12-07T13:31:34;24.40;;;7.95;;
72711;SDS011;60828;40.292;17.998;2022-12-07T13:34:03;26.25;;;7.45;;
72711;SDS011;60828;40.292;17.998;2022-12-07T13:36:34;22.05;;;6.97;;
72711;SDS011;60828;40.292;17.998;2022-12-07T13:39:22;23.83;;;9.43;;
72711;SDS011;60828;40.292;17.998;2022-12-07T13:41:54;20.10;;;6.50;;
72711;SDS011;60828;40.292;17.998;2022-12-07T13:44:22;21.02;;;7.10;;
72711;SDS011;60828;40.292;17.998;2022-12-07T13:46:50;23.45;;;8.98;;
72711;SDS011;60828;40.292;17.998;2022-12-07T13:49:27;27.67;;;8.43;;
72711;SDS011;60828;40.292;17.998;2022-12-07T13:51:55;32.63;;;14.93;;
72711;SDS011;60828;40.292;17.998;2022-12-07T13:57:29;20.98;;;7.20;;
72711;SDS011;60828;40.292;17.998;2022-12-07T13:59:57;21.17;;;7.70;;
72711;SDS011;60828;40.292;17.998;2022-12-07T14:02:30;23.20;;;8.55;;
72711;SDS011;60828;40.292;17.998;2022-12-07T14:05:13;31.25;;;13.50;;
72711;SDS011;60828;40.292;17.998;2022-12-07T14:10:22;36.15;;;14.25;;
72711;SDS011;60828;40.292;17.998;2022-12-07T14:12:52;23.20;;;11.30;;
72711;SDS011;60828;40.292;17.998;2022-12-07T14:15:22;26.55;;;10.38;;
72711;SDS011;60828;40.292;17.998;2022-12-07T14:17:51;21.90;;;11.27;;
72711;SDS011;60828;40.292;17.998;2022-12-07T14:20:34;27.80;;;12.43;;
72711;SDS011;60828;40.292;17.998;2022-12-07T14:23:02;28.70;;;13.10;;
72711;SDS011;60828;40.292;17.998;2022-12-07T14:25:45;27.75;;;12.82;;
72711;SDS011;60828;40.292;17.998;2022-12-07T14:28:28;23.73;;;11.07;;
72711;SDS011;60828;40.292;17.998;2022-12-07T14:30:59;29.05;;;15.10;;
72711;SDS011;60828;40.292;17.998;2022-12-07T14:33:25;27.50;;;12.20;;
72711;SDS011;60828;40.292;17.998;2022-12-07T14:35:51;23.75;;;9.73;;
72711;SDS011;60828;40.292;17.998;2022-12-07T14:38:23;29.00;;;12.02;;
72711;SDS011;60828;40.292;17.998;2022-12-07T14:40:52;33.03;;;16.50;;
72711;SDS011;60828;40.292;17.998;2022-12-07T14:43:19;49.78;;;23.48;;
72711;SDS011;60828;40.292;17.998;2022-12-07T14:45:45;41.90;;;20.20;;
72711;SDS011;60828;40.292;17.998;2022-12-07T14:48:11;38.07;;;20.33;;
72711;SDS011;60828;40.292;17.998;2022-12-07T14:50:39;32.72;;;18.38;;
72711;SDS011;60828;40.292;17.998;2022-12-07T14:53:15;33.83;;;18.17;;
72711;SDS011;60828;40.292;17.998;2022-12-07T14:55:42;33.47;;;18.77;;
72711;SDS011;60828;40.292;17.998;2022-12-07T14:58:14;38.70;;;19.05;;
72711;SDS011;60828;40.292;17.998;2022-12-07T15:00:41;38.55;;;20.63;;
72711;SDS011;60828;40.292;17.998;2022-12-07T15:03:07;35.53;;;20.55;;
72711;SDS011;60828;40.292;17.998;2022-12-07T15:05:32;42.90;;;20.83;;
72711;SDS011;60828;40.292;17.998;2022-12-07T15:07:58;41.53;;;25.55;;
72711;SDS011;60828;40.292;17.998;2022-12-07T15:10:25;44.67;;;28.63;;
72711;SDS011;60828;40.292;17.998;2022-12-07T15:12:58;58.10;;;37.38;;
72711;SDS011;60828;40.292;17.998;2022-12-07T15:15:44;49.90;;;30.93;;
72711;SDS011;60828;40.292;17.998;2022-12-07T15:18:10;55.53;;;33.40;;
72711;SDS011;60828;40.292;17.998;2022-12-07T15:20:35;48.57;;;31.90;;
72711;SDS011;60828;40.292;17.998;2022-12-07T15:23:01;48.65;;;31.73;;
72711;SDS011;60828;40.292;17.998;2022-12-07T15:25:26;58.47;;;39.70;;
72711;SDS011;60828;40.292;17.998;2022-12-07T15:27:52;55.50;;;37.90;;
72711;SDS011;60828;40.292;17.998;2022-12-07T15:30:17;50.10;;;30.50;;
72711;SDS011;60828;40.292;17.998;2022-12-07T15:32:43;47.20;;;29.15;;
72711;SDS011;60828;40.292;17.998;2022-12-07T15:35:08;51.80;;;30.53;;
72711;SDS011;60828;40.292;17.998;2022-12-07T15:37:34;58.70;;;35.07;;
72711;SDS011;60828;40.292;17.998;2022-12-07T15:39:59;57.07;;;37.93;;
72711;SDS011;60828;40.292;17.998;2022-12-07T15:42:25;63.33;;;42.23;;
72711;SDS011;60828;40.292;17.998;2022-12-07T15:44:50;65.35;;;41.55;;
72711;SDS011;60828;40.292;17.998;2022-12-07T15:47:38;70.70;;;47.33;;
72711;SDS011;60828;40.292;17.998;2022-12-07T15:50:09;74.13;;;51.90;;
72711;SDS011;60828;40.292;17.998;2022-12-07T15:52:38;72.40;;;49.83;;
72711;SDS011;60828;40.292;17.998;2022-12-07T15:55:04;73.63;;;50.43;;
72711;SDS011;60828;40.292;17.998;2022-12-07T15:57:30;74.37;;;51.87;;
72711;SDS011;60828;40.292;17.998;2022-12-07T15:59:56;83.80;;;55.00;;
72711;SDS011;60828;40.292;17.998;2022-12-07T16:02:22;81.97;;;55.20;;
72711;SDS011;60828;40.292;17.998;2022-12-07T16:04:48;71.20;;;50.65;;
72711;SDS011;60828;40.292;17.998;2022-12-07T16:07:15;84.63;;;58.67;;
72711;SDS011;60828;40.292;17.998;2022-12-07T16:09:42;90.40;;;64.83;;
72711;SDS011;60828;40.292;17.998;2022-12-07T16:12:08;108.00;;;72.68;;
72711;SDS011;60828;40.292;17.998;2022-12-07T16:14:35;106.88;;;71.32;;
72711;SDS011;60828;40.292;17.998;2022-12-07T16:17:01;98.40;;;71.10;;
72711;SDS011;60828;40.292;17.998;2022-12-07T16:19:27;106.65;;;72.75;;
72711;SDS011;60828;40.292;17.998;2022-12-07T16:21:52;107.07;;;73.17;;
72711;SDS011;60828;40.292;17.998;2022-12-07T16:24:18;102.25;;;71.97;;
72711;SDS011;60828;40.292;17.998;2022-12-07T16:26:44;108.27;;;74.07;;
72711;SDS011;60828;40.292;17.998;2022-12-07T16:29:12;112.85;;;74.80;;
72711;SDS011;60828;40.292;17.998;2022-12-07T16:31:38;110.22;;;74.15;;
72711;SDS011;60828;40.292;17.998;2022-12-07T16:34:05;102.35;;;69.53;;
72711;SDS011;60828;40.292;17.998;2022-12-07T16:36:31;101.87;;;71.23;;
72711;SDS011;60828;40.292;17.998;2022-12-07T16:39:02;95.17;;;68.97;;
72711;SDS011;60828;40.292;17.998;2022-12-07T16:41:29;92.97;;;66.15;;
72711;SDS011;60828;40.292;17.998;2022-12-07T16:43:54;111.22;;;81.43;;
72711;SDS011;60828;40.292;17.998;2022-12-07T16:46:20;114.07;;;86.10;;
72711;SDS011;60828;40.292;17.998;2022-12-07T16:48:45;130.20;;;93.68;;
72711;SDS011;60828;40.292;17.998;2022-12-07T16:51:11;143.00;;;103.47;;
72711;SDS011;60828;40.292;17.998;2022-12-07T16:53:38;127.88;;;93.13;;
72711;SDS011;60828;40.292;17.998;2022-12-07T16:56:12;125.32;;;93.88;;
72711;SDS011;60828;40.292;17.998;2022-12-07T16:58:39;145.18;;;106.35;;
72711;SDS011;60828;40.292;17.998;2022-12-07T17:01:09;117.78;;;86.50;;
72711;SDS011;60828;40.292;17.998;2022-12-07T17:03:39;105.85;;;78.85;;
72711;SDS011;60828;40.292;17.998;2022-12-07T17:06:15;110.77;;;78.60;;
72711;SDS011;60828;40.292;17.998;2022-12-07T17:08:42;154.43;;;110.05;;
72711;SDS011;60828;40.292;17.998;2022-12-07T17:11:12;141.15;;;105.63;;
72711;SDS011;60828;40.292;17.998;2022-12-07T17:13:39;155.73;;;113.55;;
72711;SDS011;60828;40.292;17.998;2022-12-07T17:16:23;146.90;;;109.80;;
72711;SDS011;60828;40.292;17.998;2022-12-07T17:18:49;139.07;;;104.35;;
72711;SDS011;60828;40.292;17.998;2022-12-07T17:21:14;134.93;;;99.63;;
72711;SDS011;60828;40.292;17.998;2022-12-07T17:23:40;129.57;;;98.70;;
72711;SDS011;60828;40.292;17.998;2022-12-07T17:26:10;130.10;;;100.43;;
72711;SDS011;60828;40.292;17.998;2022-12-07T17:28:38;123.40;;;93.65;;
72711;SDS011;60828;40.292;17.998;2022-12-07T17:31:08;122.37;;;90.83;;
72711;SDS011;60828;40.292;17.998;2022-12-07T17:33:36;155.50;;;118.63;;
72711;SDS011;60828;40.292;17.998;2022-12-07T17:36:09;149.10;;;108.90;;
72711;SDS011;60828;40.292;17.998;2022-12-07T17:38:40;122.32;;;93.43;;
72711;SDS011;60828;40.292;17.998;2022-12-07T17:41:10;103.72;;;73.95;;
72711;SDS011;60828;40.292;17.998;2022-12-07T17:43:37;106.13;;;75.20;;
72711;SDS011;60828;40.292;17.998;2022-12-07T17:46:09;108.45;;;74.50;;
72711;SDS011;60828;40.292;17.998;2022-12-07T17:48:35;120.47;;;79.22;;
72711;SDS011;60828;40.292;17.998;2022-12-07T17:51:01;137.13;;;92.03;;
72711;SDS011;60828;40.292;17.998;2022-12-07T17:53:49;199.68;;;137.95;;
72711;SDS011;60828;40.292;17.998;2022-12-07T17:56:15;231.73;;;159.82;;
72711;SDS011;60828;40.292;17.998;2022-12-07T17:58:40;220.17;;;158.43;;
72711;SDS011;60828;40.292;17.998;2022-12-07T18:01:08;183.33;;;133.00;;
72711;SDS011;60828;40.292;17.998;2022-12-07T18:03:35;202.68;;;148.98;;
72711;SDS011;60828;40.292;17.998;2022-12-07T18:06:00;219.63;;;163.27;;
72711;SDS011;60828;40.292;17.998;2022-12-07T18:08:26;242.25;;;179.55;;
72711;SDS011;60828;40.292;17.998;2022-12-07T18:10:58;229.67;;;170.27;;
72711;SDS011;60828;40.292;17.998;2022-12-07T18:13:24;226.23;;;173.30;;
72711;SDS011;60828;40.292;17.998;2022-12-07T18:16:09;218.20;;;158.50;;
72711;SDS011;60828;40.292;17.998;2022-12-07T18:18:37;213.68;;;161.15;;
72711;SDS011;60828;40.292;17.998;2022-12-07T18:21:04;216.45;;;160.85;;
72711;SDS011;60828;40.292;17.998;2022-12-07T18:23:32;186.75;;;134.02;;
72711;SDS011;60828;40.292;17.998;2022-12-07T18:25:58;167.37;;;120.57;;
72711;SDS011;60828;40.292;17.998;2022-12-07T18:28:25;173.50;;;121.60;;
72711;SDS011;60828;40.292;17.998;2022-12-07T18:30:50;160.13;;;116.30;;
72711;SDS011;60828;40.292;17.998;2022-12-07T18:33:16;153.17;;;113.27;;
72711;SDS011;60828;40.292;17.998;2022-12-07T18:35:43;154.00;;;111.45;;
72711;SDS011;60828;40.292;17.998;2022-12-07T18:38:08;158.70;;;116.38;;
72711;SDS011;60828;40.292;17.998;2022-12-07T18:40:36;147.13;;;104.87;;
72711;SDS011;60828;40.292;17.998;2022-12-07T18:43:02;147.37;;;108.07;;
72711;SDS011;60828;40.292;17.998;2022-12-07T18:45:28;134.43;;;98.40;;
72711;SDS011;60828;40.292;17.998;2022-12-07T18:47:54;132.15;;;96.75;;
72711;SDS011;60828;40.292;17.998;2022-12-07T18:50:19;136.30;;;98.30;;
72711;SDS011;60828;40.292;17.998;2022-12-07T18:52:45;114.10;;;81.07;;
72711;SDS011;60828;40.292;17.998;2022-12-07T18:55:10;103.07;;;71.53;;
72711;SDS011;60828;40.292;17.998;2022-12-07T18:57:36;115.07;;;82.90;;
72711;SDS011;60828;40.292;17.998;2022-12-07T19:00:02;115.95;;;82.35;;
72711;SDS011;60828;40.292;17.998;2022-12-07T19:02:28;124.78;;;90.93;;
72711;SDS011;60828;40.292;17.998;2022-12-07T19:04:53;146.00;;;104.25;;
72711;SDS011;60828;40.292;17.998;2022-12-07T19:07:19;137.23;;;99.70;;
72711;SDS011;60828;40.292;17.998;2022-12-07T19:09:44;141.83;;;101.80;;
72711;SDS011;60828;40.292;17.998;2022-12-07T19:12:11;151.90;;;108.60;;
72711;SDS011;60828;40.292;17.998;2022-12-07T19:14:37;156.27;;;111.65;;
72711;SDS011;60828;40.292;17.998;2022-12-07T19:17:04;151.57;;;112.13;;
72711;SDS011;60828;40.292;17.998;2022-12-07T19:19:32;148.27;;;103.95;;
72711;SDS011;60828;40.292;17.998;2022-12-07T19:22:00;128.07;;;89.50;;
72711;SDS011;60828;40.292;17.998;2022-12-07T19:24:26;112.50;;;82.53;;
72711;SDS011;60828;40.292;17.998;2022-12-07T19:26:52;106.88;;;76.35;;
72711;SDS011;60828;40.292;17.998;2022-12-07T19:29:18;121.65;;;80.07;;
72711;SDS011;60828;40.292;17.998;2022-12-07T19:31:43;104.53;;;71.13;;
72711;SDS011;60828;40.292;17.998;2022-12-07T19:34:10;99.33;;;68.10;;
72711;SDS011;60828;40.292;17.998;2022-12-07T19:36:36;101.03;;;68.05;;
72711;SDS011;60828;40.292;17.998;2022-12-07T19:39:02;96.88;;;64.03;;
72711;SDS011;60828;40.292;17.998;2022-12-07T19:41:28;93.75;;;64.07;;
72711;SDS011;60828;40.292;17.998;2022-12-07T19:46:36;100.18;;;67.65;;
72711;SDS011;60828;40.292;17.998;2022-12-07T19:49:02;115.78;;;78.55;;
72711;SDS011;60828;40.292;17.998;2022-12-07T19:51:28;112.97;;;79.93;;
72711;SDS011;60828;40.292;17.998;2022-12-07T19:53:56;110.70;;;78.32;;
72711;SDS011;60828;40.292;17.998;2022-12-07T19:56:26;112.03;;;75.68;;
72711;SDS011;60828;40.292;17.998;2022-12-07T19:58:53;109.13;;;72.97;;
72711;SDS011;60828;40.292;17.998;2022-12-07T20:01:19;112.15;;;76.05;;
72711;SDS011;60828;40.292;17.998;2022-12-07T20:03:45;112.95;;;81.05;;
72711;SDS011;60828;40.292;17.998;2022-12-07T20:06:12;129.40;;;88.85;;
72711;SDS011;60828;40.292;17.998;2022-12-07T20:08:40;128.98;;;91.47;;
72711;SDS011;60828;40.292;17.998;2022-12-07T20:11:06;130.20;;;89.88;;
72711;SDS011;60828;40.292;17.998;2022-12-07T20:13:50;137.23;;;91.47;;
72711;SDS011;60828;40.292;17.998;2022-12-07T20:16:16;123.07;;;80.50;;
72711;SDS011;60828;40.292;17.998;2022-12-07T20:18:42;116.15;;;76.80;;
72711;SDS011;60828;40.292;17.998;2022-12-07T20:21:08;114.77;;;77.63;;
72711;SDS011;60828;40.292;17.998;2022-12-07T20:23:33;110.90;;;74.72;;
72711;SDS011;60828;40.292;17.998;2022-12-07T20:26:06;107.27;;;71.37;;
72711;SDS011;60828;40.292;17.998;2022-12-07T20:28:32;118.47;;;81.20;;
72711;SDS011;60828;40.292;17.998;2022-12-07T20:30:58;143.10;;;100.65;;
72711;SDS011;60828;40.292;17.998;2022-12-07T20:33:24;182.87;;;123.37;;
72711;SDS011;60828;40.292;17.998;2022-12-07T20:35:49;185.18;;;131.60;;
72711;SDS011;60828;40.292;17.998;2022-12-07T20:38:15;148.13;;;106.23;;
72711;SDS011;60828;40.292;17.998;2022-12-07T20:40:47;135.00;;;92.00;;
72711;SDS011;60828;40.292;17.998;2022-12-07T20:43:14;122.47;;;83.03;;
72711;SDS011;60828;40.292;17.998;2022-12-07T20:45:46;123.75;;;83.78;;
72711;SDS011;60828;40.292;17.998;2022-12-07T20:48:13;121.22;;;78.93;;
72711;SDS011;60828;40.292;17.998;2022-12-07T20:50:39;118.05;;;76.22;;
72711;SDS011;60828;40.292;17.998;2022-12-07T20:53:05;104.30;;;68.95;;
72711;SDS011;60828;40.292;17.998;2022-12-07T20:55:31;101.70;;;71.00;;
72711;SDS011;60828;40.292;17.998;2022-12-07T20:57:56;111.43;;;76.07;;
72711;SDS011;60828;40.292;17.998;2022-12-07T21:00:22;104.47;;;70.53;;
72711;SDS011;60828;40.292;17.998;2022-12-07T21:02:48;96.18;;;68.70;;
72711;SDS011;60828;40.292;17.998;2022-12-07T21:05:13;94.13;;;66.27;;
72711;SDS011;60828;40.292;17.998;2022-12-07T21:07:39;103.00;;;69.28;;
72711;SDS011;60828;40.292;17.998;2022-12-07T21:10:05;112.60;;;74.80;;
72711;SDS011;60828;40.292;17.998;2022-12-07T21:12:31;113.65;;;77.78;;
72711;SDS011;60828;40.292;17.998;2022-12-07T21:14:56;109.93;;;77.07;;
72711;SDS011;60828;40.292;17.998;2022-12-07T21:17:22;115.13;;;80.22;;
72711;SDS011;60828;40.292;17.998;2022-12-07T21:19:48;105.07;;;76.57;;
72711;SDS011;60828;40.292;17.998;2022-12-07T21:22:13;111.38;;;75.53;;
72711;SDS011;60828;40.292;17.998;2022-12-07T21:24:39;122.37;;;83.37;;
72711;SDS011;60828;40.292;17.998;2022-12-07T21:27:05;111.97;;;81.13;;
72711;SDS011;60828;40.292;17.998;2022-12-07T21:29:31;108.53;;;76.00;;
72711;SDS011;60828;40.292;17.998;2022-12-07T21:31:57;106.53;;;74.33;;
72711;SDS011;60828;40.292;17.998;2022-12-07T21:34:22;115.37;;;80.87;;
72711;SDS011;60828;40.292;17.998;2022-12-07T21:36:48;116.07;;;81.20;;
72711;SDS011;60828;40.292;17.998;2022-12-07T21:39:13;111.77;;;78.30;;
72711;SDS011;60828;40.292;17.998;2022-12-07T21:41:39;116.00;;;78.20;;
72711;SDS011;60828;40.292;17.998;2022-12-07T21:44:05;111.57;;;77.67;;
72711;SDS011;60828;40.292;17.998;2022-12-07T21:46:32;109.70;;;77.67;;
72711;SDS011;60828;40.292;17.998;2022-12-07T21:48:59;117.20;;;81.75;;
72711;SDS011;60828;40.292;17.998;2022-12-07T21:51:26;117.50;;;80.80;;
72711;SDS011;60828;40.292;17.998;2022-12-07T21:53:54;117.27;;;82.57;;
72711;SDS011;60828;40.292;17.998;2022-12-07T21:56:22;116.03;;;83.45;;
72711;SDS011;60828;40.292;17.998;2022-12-07T21:58:49;112.32;;;79.80;;
72711;SDS011;60828;40.292;17.998;2022-12-07T22:03:42;116.90;;;79.68;;
72711;SDS011;60828;40.292;17.998;2022-12-07T22:06:09;107.17;;;74.53;;
72711;SDS011;60828;40.292;17.998;2022-12-07T22:08:37;108.70;;;75.53;;
72711;SDS011;60828;40.292;17.998;2022-12-07T22:11:02;104.88;;;76.30;;
72711;SDS011;60828;40.292;17.998;2022-12-07T22:13:28;107.30;;;75.00;;
72711;SDS011;60828;40.292;17.998;2022-12-07T22:16:16;99.10;;;71.07;;
72711;SDS011;60828;40.292;17.998;2022-12-07T22:18:42;97.95;;;69.65;;
72711;SDS011;60828;40.292;17.998;2022-12-07T22:21:07;93.00;;;63.67;;
72711;SDS011;60828;40.292;17.998;2022-12-07T22:23:33;90.10;;;64.17;;
72711;SDS011;60828;40.292;17.998;2022-12-07T22:25:58;94.33;;;65.40;;
72711;SDS011;60828;40.292;17.998;2022-12-07T22:28:24;92.87;;;63.73;;
72711;SDS011;60828;40.292;17.998;2022-12-07T22:30:49;95.53;;;66.32;;
72711;SDS011;60828;40.292;17.998;2022-12-07T22:33:15;90.23;;;60.47;;
72711;SDS011;60828;40.292;17.998;2022-12-07T22:35:40;87.13;;;59.03;;
72711;SDS011;60828;40.292;17.998;2022-12-07T22:38:06;92.10;;;61.73;;
72711;SDS011;60828;40.292;17.998;2022-12-07T22:40:32;93.80;;;63.87;;
72711;SDS011;60828;40.292;17.998;2022-12-07T22:42:57;86.17;;;60.60;;
72711;SDS011;60828;40.292;17.998;2022-12-07T22:45:23;88.25;;;60.88;;
72711;SDS011;60828;40.292;17.998;2022-12-07T22:47:48;77.00;;;55.60;;
72711;SDS011;60828;40.292;17.998;2022-12-07T22:50:14;81.10;;;57.78;;
72711;SDS011;60828;40.292;17.998;2022-12-07T22:52:40;87.43;;;58.47;;
72711;SDS011;60828;40.292;17.998;2022-12-07T22:55:06;86.57;;;59.13;;
72711;SDS011;60828;40.292;17.998;2022-12-07T22:57:32;77.13;;;53.35;;
72711;SDS011;60828;40.292;17.998;2022-12-07T22:59:57;76.90;;;54.03;;
72711;SDS011;60828;40.292;17.998;2022-12-07T23:02:23;74.87;;;52.27;;
72711;SDS011;60828;40.292;17.998;2022-12-07T23:04:48;73.20;;;50.88;;
72711;SDS011;60828;40.292;17.998;2022-12-07T23:07:14;75.17;;;49.27;;
72711;SDS011;60828;40.292;17.998;2022-12-07T23:09:39;75.05;;;48.63;;
72711;SDS011;60828;40.292;17.998;2022-12-07T23:12:05;76.20;;;51.50;;
72711;SDS011;60828;40.292;17.998;2022-12-07T23:14:49;76.82;;;52.10;;
72711;SDS011;60828;40.292;17.998;2022-12-07T23:17:18;76.47;;;50.13;;
72711;SDS011;60828;40.292;17.998;2022-12-07T23:19:43;70.97;;;50.10;;
72711;SDS011;60828;40.292;17.998;2022-12-07T23:22:09;68.60;;;47.78;;
72711;SDS011;60828;40.292;17.998;2022-12-07T23:24:34;66.30;;;47.73;;
72711;SDS011;60828;40.292;17.998;2022-12-07T23:27:00;64.57;;;46.67;;
72711;SDS011;60828;40.292;17.998;2022-12-07T23:29:26;65.60;;;46.03;;
72711;SDS011;60828;40.292;17.998;2022-12-07T23:31:51;67.60;;;45.60;;
72711;SDS011;60828;40.292;17.998;2022-12-07T23:34:17;64.83;;;45.80;;
72711;SDS011;60828;40.292;17.998;2022-12-07T23:36:42;66.18;;;46.63;;
72711;SDS011;60828;40.292;17.998;2022-12-07T23:39:09;68.37;;;47.20;;
72711;SDS011;60828;40.292;17.998;2022-12-07T23:41:35;67.68;;;46.90;;
72711;SDS011;60828;40.292;17.998;2022-12-07T23:44:00;73.00;;;46.23;;
72711;SDS011;60828;40.292;17.998;2022-12-07T23:46:27;73.93;;;48.35;;
72711;SDS011;60828;40.292;17.998;2022-12-07T23:48:54;102.07;;;67.28;;
72711;SDS011;60828;40.292;17.998;2022-12-07T23:51:21;82.93;;;58.10;;
72711;SDS011;60828;40.292;17.998;2022-12-07T23:53:48;71.47;;;51.17;;
72711;SDS011;60828;40.292;17.998;2022-12-07T23:56:16;73.22;;;51.40;;
72711;SDS011;60828;40.292;17.998;2022-12-07T23:58:43;74.57;;;52.40;;
